createdAt,value
2022-12-17T00:01:22.576Z,6.20
2022-12-17T00:04:26.661Z,6.30
2022-12-17T00:07:30.734Z,6.30
2022-12-17T00:10:34.724Z,6.20
2022-12-17T00:13:39.409Z,6.40
2022-12-17T00:16:44.704Z,6.40
2022-12-17T00:19:48.912Z,6.30
2022-12-17T00:22:52.995Z,6.50
2022-12-17T00:25:57.490Z,6.10
2022-12-17T00:29:01.567Z,6.10
2022-12-17T00:32:08.161Z,6.30
2022-12-17T00:35:12.186Z,6.20
2022-12-17T00:38:16.153Z,6.40
2022-12-17T00:41:20.251Z,6.00
2022-12-17T00:44:24.340Z,6.00
2022-12-17T00:47:29.903Z,5.90
2022-12-17T00:50:34.274Z,5.80
2022-12-17T00:53:38.947Z,5.70
2022-12-17T00:56:43.604Z,5.70
2022-12-17T00:59:49.952Z,5.60
2022-12-17T01:02:55.420Z,5.40
2022-12-17T01:06:00.301Z,5.50
2022-12-17T01:09:04.349Z,5.50
2022-12-17T01:12:08.370Z,5.70
2022-12-17T01:15:13.040Z,5.50
2022-12-17T01:18:18.561Z,5.60
2022-12-17T01:21:22.956Z,5.50
2022-12-17T01:24:27.353Z,5.20
2022-12-17T01:27:31.418Z,5.10
2022-12-17T01:30:35.854Z,5.10
2022-12-17T01:33:42.661Z,5.40
2022-12-17T01:36:46.507Z,5.40
2022-12-17T01:39:50.620Z,5.20
2022-12-17T01:42:59.211Z,5.10
2022-12-17T01:46:06.676Z,5.10
2022-12-17T01:49:12.855Z,5.10
2022-12-17T01:52:18.337Z,5.10
2022-12-17T01:55:24.530Z,5.10
2022-12-17T01:58:28.622Z,5.10
2022-12-17T02:01:33.243Z,5.10
2022-12-17T02:04:39.445Z,5.00
2022-12-17T02:08:01.576Z,4.80
2022-12-17T02:11:12.857Z,4.50
2022-12-17T02:14:22.280Z,4.70
2022-12-17T02:17:29.610Z,4.90
2022-12-17T02:20:43.434Z,4.80
2022-12-17T02:23:57.013Z,4.60
2022-12-17T02:27:06.107Z,4.60
2022-12-17T02:30:14.480Z,4.60
2022-12-17T02:33:20.116Z,4.30
2022-12-17T02:36:26.550Z,4.60
2022-12-17T02:39:30.636Z,4.50
2022-12-17T02:42:37.077Z,4.60
2022-12-17T02:45:42.550Z,4.50
2022-12-17T02:48:47.975Z,4.70
2022-12-17T02:51:52.761Z,5.00
2022-12-17T02:54:56.920Z,4.80
2022-12-17T02:58:02.600Z,4.90
2022-12-17T03:01:07.295Z,4.80
2022-12-17T03:04:13.512Z,4.60
2022-12-17T03:07:17.833Z,4.80
2022-12-17T03:10:22.936Z,4.70
2022-12-17T03:13:28.521Z,4.90
2022-12-17T03:16:37.653Z,4.90
2022-12-17T03:19:42.467Z,4.80
2022-12-17T03:22:47.091Z,5.10
2022-12-17T03:25:51.213Z,4.80
2022-12-17T03:28:57.266Z,4.80
2022-12-17T03:32:01.464Z,4.50
2022-12-17T03:35:05.592Z,4.20
2022-12-17T03:38:09.812Z,4.10
2022-12-17T03:41:14.638Z,4.10
2022-12-17T03:44:20.284Z,3.90
2022-12-17T03:47:24.903Z,3.80
2022-12-17T03:50:29.870Z,3.60
2022-12-17T03:53:33.912Z,3.80
2022-12-17T03:56:38.318Z,3.80
2022-12-17T03:59:43.799Z,3.80
2022-12-17T04:02:47.870Z,3.60
2022-12-17T04:05:52.212Z,3.60
2022-12-17T04:08:56.240Z,3.50
2022-12-17T04:12:00.299Z,3.60
2022-12-17T04:15:05.840Z,3.40
2022-12-17T04:18:09.793Z,3.40
2022-12-17T04:21:13.981Z,3.40
2022-12-17T04:24:17.874Z,3.70
2022-12-17T04:27:22.185Z,3.60
2022-12-17T04:30:29.269Z,3.70
2022-12-17T04:33:33.489Z,3.70
2022-12-17T04:36:37.792Z,3.70
2022-12-17T04:39:42.122Z,3.40
2022-12-17T04:42:46.242Z,3.20
2022-12-17T04:45:51.997Z,3.20
2022-12-17T04:48:56.270Z,3.20
2022-12-17T04:52:00.418Z,3.00
2022-12-17T04:55:04.523Z,3.20
2022-12-17T04:58:08.462Z,3.10
2022-12-17T05:01:14.366Z,3.10
2022-12-17T05:04:18.276Z,3.10
2022-12-17T05:07:22.544Z,3.20
2022-12-17T05:10:26.657Z,3.50
2022-12-17T05:13:30.979Z,3.80
2022-12-17T05:16:36.382Z,3.90
2022-12-17T05:19:57.430Z,3.70
2022-12-17T05:23:01.311Z,3.30
2022-12-17T05:26:05.417Z,3.20
2022-12-17T05:29:15.434Z,3.40
2022-12-17T05:32:21.205Z,3.40
2022-12-17T05:35:25.919Z,3.70
2022-12-17T05:38:30.079Z,3.70
2022-12-17T05:41:34.414Z,3.90
2022-12-17T05:44:38.654Z,4.00
2022-12-17T05:47:43.946Z,3.70
2022-12-17T05:50:47.951Z,3.90
2022-12-17T05:53:52.117Z,3.90
2022-12-17T05:56:56.303Z,4.00
2022-12-17T06:00:00.511Z,3.90
2022-12-17T06:03:06.183Z,3.90
2022-12-17T06:06:12.178Z,4.10
2022-12-17T06:09:16.645Z,4.10
2022-12-17T06:12:21.154Z,4.20
2022-12-17T06:15:25.790Z,4.40
2022-12-17T06:18:31.319Z,4.40
2022-12-17T06:21:35.514Z,4.30
2022-12-17T06:24:44.243Z,4.20
2022-12-17T06:27:50.057Z,4.40
2022-12-17T06:30:54.255Z,4.40
2022-12-17T06:33:59.595Z,4.10
2022-12-17T06:37:03.940Z,4.30
2022-12-17T06:40:08.021Z,4.40
2022-12-17T06:43:12.457Z,4.60
2022-12-17T06:46:16.815Z,4.40
2022-12-17T06:49:22.285Z,4.50
2022-12-17T06:52:26.372Z,4.50
2022-12-17T06:55:30.443Z,4.60
2022-12-17T06:58:34.542Z,4.20
2022-12-17T07:01:38.797Z,4.20
2022-12-17T07:04:47.364Z,4.30
2022-12-17T07:07:51.396Z,4.40
2022-12-17T07:10:56.643Z,4.40
2022-12-17T07:14:01.284Z,4.10
2022-12-17T07:17:05.504Z,3.80
2022-12-17T07:20:13.430Z,3.50
2022-12-17T07:23:17.931Z,3.50
2022-12-17T07:26:24.534Z,3.50
2022-12-17T07:29:28.670Z,3.30
2022-12-17T07:32:52.521Z,3.50
2022-12-17T07:35:57.361Z,3.80
2022-12-17T07:39:01.151Z,3.80
2022-12-17T07:42:05.172Z,4.00
2022-12-17T07:45:09.117Z,4.10
2022-12-17T07:48:16.038Z,3.80
2022-12-17T07:51:21.849Z,3.60
2022-12-17T07:54:26.130Z,3.60
2022-12-17T07:57:30.330Z,3.60
2022-12-17T08:00:34.428Z,3.80
2022-12-17T08:03:41.724Z,3.90
2022-12-17T08:07:02.839Z,3.80
2022-12-17T08:10:09.600Z,3.60
2022-12-17T08:13:14.430Z,3.30
2022-12-17T08:16:18.877Z,3.40
2022-12-17T08:19:23.251Z,3.30
2022-12-17T08:22:28.527Z,3.40
2022-12-17T08:25:32.641Z,3.50
2022-12-17T08:28:52.113Z,3.50
2022-12-17T08:31:56.798Z,3.30
2022-12-17T08:35:02.473Z,3.30
2022-12-17T08:38:08.091Z,3.40
2022-12-17T08:41:12.532Z,3.70
2022-12-17T08:44:16.895Z,4.10
2022-12-17T08:47:21.138Z,3.90
2022-12-17T08:50:30.092Z,4.00
2022-12-17T08:53:55.290Z,3.70
2022-12-17T08:56:59.260Z,4.00
2022-12-17T09:00:03.302Z,4.00
2022-12-17T09:03:07.406Z,4.10
2022-12-17T09:06:11.354Z,4.40
2022-12-17T09:09:16.806Z,4.10
2022-12-17T09:12:20.934Z,4.20
2022-12-17T09:15:25.544Z,3.90
2022-12-17T09:18:29.857Z,4.40
2022-12-17T09:21:34.218Z,4.40
2022-12-17T09:24:39.770Z,4.50
2022-12-17T09:27:43.922Z,4.60
2022-12-17T09:30:48.186Z,4.50
2022-12-17T09:33:52.272Z,4.30
2022-12-17T09:36:56.344Z,4.40
2022-12-17T09:40:01.624Z,4.40
2022-12-17T09:43:10.566Z,4.40
2022-12-17T09:46:18.862Z,3.90
2022-12-17T09:49:23.868Z,3.70
2022-12-17T09:52:34.497Z,3.80
2022-12-17T09:55:41.208Z,3.90
2022-12-17T09:58:47.327Z,3.80
2022-12-17T10:01:52.756Z,3.90
2022-12-17T10:04:58.630Z,4.00
2022-12-17T10:08:13.969Z,4.40
2022-12-17T10:11:34.200Z,4.30
2022-12-17T10:14:40.276Z,4.80
2022-12-17T10:17:44.520Z,4.90
2022-12-17T10:20:50.997Z,4.80
2022-12-17T10:23:55.368Z,4.50
2022-12-17T10:27:06.554Z,4.90
2022-12-17T10:30:10.492Z,5.20
2022-12-17T10:33:14.712Z,5.20
2022-12-17T10:36:26.277Z,4.70
2022-12-17T10:39:33.788Z,4.50
2022-12-17T10:42:40.704Z,4.30
2022-12-17T10:45:45.785Z,4.20
2022-12-17T10:48:49.812Z,4.30
2022-12-17T10:51:54.418Z,4.20
2022-12-17T10:54:59.069Z,4.20
2022-12-17T10:58:05.476Z,4.40
2022-12-17T11:01:17.656Z,4.20
2022-12-17T11:04:21.816Z,4.10
2022-12-17T11:07:26.964Z,4.10
2022-12-17T11:10:32.587Z,4.30
2022-12-17T11:13:43.583Z,4.60
2022-12-17T11:16:50.688Z,4.60
2022-12-17T11:20:03.661Z,4.40
2022-12-17T11:23:10.020Z,4.40
2022-12-17T11:26:16.595Z,4.70
2022-12-17T11:29:22.353Z,4.60
2022-12-17T11:32:40.163Z,4.40
2022-12-17T11:35:47.385Z,4.80
2022-12-17T11:38:53.549Z,4.90
2022-12-17T11:42:11.181Z,4.80
2022-12-17T11:45:20.094Z,4.90
2022-12-17T11:48:27.256Z,5.30
2022-12-17T11:51:33.384Z,5.10
2022-12-17T11:54:40.665Z,4.90
2022-12-17T11:57:48.156Z,4.90
2022-12-17T12:00:57.681Z,4.50
2022-12-17T12:04:05.031Z,4.80
2022-12-17T12:07:16.615Z,5.00
2022-12-17T12:10:22.016Z,5.00
2022-12-17T12:13:31.082Z,4.80
2022-12-17T12:16:44.005Z,4.50
2022-12-17T12:19:52.629Z,4.60
2022-12-17T12:23:00.591Z,4.70
2022-12-17T12:26:07.990Z,4.70
2022-12-17T12:29:15.408Z,4.60
2022-12-17T12:32:23.033Z,4.30
2022-12-17T12:35:31.139Z,4.30
2022-12-17T12:38:41.744Z,4.60
2022-12-17T12:41:55.806Z,4.60
2022-12-17T12:45:03.456Z,4.50
2022-12-17T12:48:12.073Z,4.50
2022-12-17T12:51:20.487Z,4.70
2022-12-17T12:54:53.404Z,4.30
2022-12-17T12:57:59.320Z,4.80
2022-12-17T13:01:11.220Z,4.90
2022-12-17T13:04:18.110Z,4.60
2022-12-17T13:07:04.195Z,4.60
2022-12-17T13:09:50.357Z,4.50
2022-12-17T13:12:41.033Z,4.40
2022-12-17T13:15:33.404Z,4.60
2022-12-17T13:18:22.145Z,4.40
2022-12-17T13:24:22.929Z,4.80
2022-12-17T13:27:22.997Z,4.80
2022-12-17T13:30:21.540Z,4.70
2022-12-17T13:33:18.360Z,4.90
2022-12-17T13:36:09.141Z,4.60
2022-12-17T13:38:57.402Z,4.50
2022-12-17T13:41:44.128Z,4.60
2022-12-17T13:44:33.396Z,4.40
2022-12-17T13:47:20.602Z,4.30
2022-12-17T13:50:35.858Z,4.20
2022-12-17T13:53:21.970Z,4.20
2022-12-17T13:56:10.502Z,4.40
2022-12-17T13:59:03.154Z,4.30
2022-12-17T14:01:53.360Z,4.40
2022-12-17T14:04:40.742Z,3.90
2022-12-17T14:07:26.910Z,3.60
2022-12-17T14:10:14.943Z,3.70
2022-12-17T14:13:06.034Z,3.90
2022-12-17T14:15:55.107Z,4.00
2022-12-17T14:18:41.410Z,4.30
2022-12-17T14:21:28.271Z,4.40
2022-12-17T14:24:14.341Z,4.10
2022-12-17T14:27:00.881Z,4.30
2022-12-17T14:29:46.782Z,4.40
2022-12-17T14:32:35.804Z,4.20
2022-12-17T14:35:25.196Z,4.00
2022-12-17T14:38:36.615Z,3.90
2022-12-17T14:41:40.671Z,3.80
2022-12-17T14:44:30.081Z,3.90
2022-12-17T14:47:22.082Z,3.50
2022-12-17T14:50:22.445Z,3.80
2022-12-17T14:56:00.863Z,3.70
2022-12-17T14:58:50.518Z,3.70
2022-12-17T15:01:36.614Z,3.90
2022-12-17T15:04:22.808Z,4.20
2022-12-17T15:07:17.845Z,3.70
2022-12-17T15:10:09.660Z,3.30
2022-12-17T15:12:57.549Z,3.30
2022-12-17T15:15:43.089Z,3.30
2022-12-17T15:18:28.925Z,3.40
2022-12-17T15:21:15.463Z,3.20
2022-12-17T15:24:01.376Z,3.50
2022-12-17T15:26:46.852Z,3.30
2022-12-17T15:29:34.666Z,3.20
2022-12-17T15:32:21.096Z,3.30
2022-12-17T15:35:07.468Z,3.10
2022-12-17T15:37:54.386Z,3.30
2022-12-17T15:40:40.357Z,3.10
2022-12-17T15:43:26.236Z,3.40
2022-12-17T15:46:13.168Z,3.40
2022-12-17T15:49:06.388Z,3.10
2022-12-17T15:52:01.391Z,2.80
2022-12-17T15:54:46.976Z,2.90
2022-12-17T15:57:32.585Z,2.90
2022-12-17T16:00:18.410Z,2.90
2022-12-17T16:03:05.437Z,3.00
2022-12-17T16:05:50.977Z,3.10
2022-12-17T16:08:37.773Z,3.10
2022-12-17T16:11:23.280Z,3.30
2022-12-17T16:14:08.953Z,3.60
2022-12-17T16:16:54.619Z,3.40
2022-12-17T16:19:41.512Z,3.20
2022-12-17T16:22:27.502Z,3.30
2022-12-17T16:25:13.000Z,3.20
2022-12-17T16:27:58.576Z,3.00
2022-12-17T16:30:44.672Z,3.10
2022-12-17T16:33:35.595Z,2.80
2022-12-17T16:36:22.826Z,2.40
2022-12-17T16:39:11.882Z,2.60
2022-12-17T16:41:57.626Z,2.80
2022-12-17T16:44:43.192Z,2.60
2022-12-17T16:47:29.338Z,2.70
2022-12-17T16:50:16.854Z,2.80
2022-12-17T16:53:04.134Z,2.70
2022-12-17T16:55:52.127Z,2.90
2022-12-17T16:58:37.742Z,3.20
2022-12-17T17:01:24.318Z,3.20
2022-12-17T17:04:10.367Z,3.00
2022-12-17T17:06:56.451Z,3.10
2022-12-17T17:09:43.389Z,2.40
2022-12-17T17:12:29.229Z,2.40
2022-12-17T17:15:14.796Z,2.20
2022-12-17T17:18:01.561Z,2.30
2022-12-17T17:20:47.998Z,2.10
2022-12-17T17:23:33.900Z,1.90
2022-12-17T17:26:21.304Z,2.20
2022-12-17T17:29:07.431Z,2.50
2022-12-17T17:32:09.789Z,2.60
2022-12-17T17:34:56.662Z,2.40
2022-12-17T17:37:42.243Z,2.80
2022-12-17T17:40:27.829Z,2.60
2022-12-17T17:43:14.742Z,2.90
2022-12-17T17:46:04.028Z,3.00
2022-12-17T17:48:55.309Z,2.80
2022-12-17T17:54:49.768Z,3.00
2022-12-17T17:57:35.155Z,3.10
2022-12-17T18:00:22.005Z,3.00
2022-12-17T18:03:07.575Z,2.80
2022-12-17T18:05:53.364Z,2.40
2022-12-17T18:08:39.382Z,2.20
2022-12-17T18:11:26.578Z,1.70
2022-12-17T18:14:13.140Z,1.50
2022-12-17T18:16:59.856Z,1.40
2022-12-17T18:19:45.430Z,1.50
2022-12-17T18:22:31.240Z,1.60
2022-12-17T18:25:16.864Z,1.70
2022-12-17T18:28:02.482Z,1.90
2022-12-17T18:30:48.096Z,2.00
2022-12-17T18:33:34.838Z,1.90
2022-12-17T18:36:21.602Z,1.90
2022-12-17T18:39:08.194Z,2.20
2022-12-17T18:42:12.250Z,1.80
2022-12-17T18:44:57.681Z,1.70
2022-12-17T18:47:44.771Z,1.50
2022-12-17T18:50:34.063Z,1.50
2022-12-17T18:53:19.505Z,1.60
2022-12-17T18:56:07.066Z,1.50
2022-12-17T18:58:53.613Z,1.80
2022-12-17T19:01:39.440Z,1.60
2022-12-17T19:04:25.644Z,1.60
2022-12-17T19:07:15.876Z,1.30
2022-12-17T19:10:01.046Z,1.40
2022-12-17T19:12:46.403Z,1.80
2022-12-17T19:15:32.067Z,1.70
2022-12-17T19:18:17.795Z,1.80
2022-12-17T19:21:03.583Z,2.20
2022-12-17T19:23:50.763Z,2.20
2022-12-17T19:26:37.277Z,1.80
2022-12-17T19:29:22.947Z,1.10
2022-12-17T19:32:09.312Z,0.70
2022-12-17T19:34:55.404Z,0.70
2022-12-17T19:37:40.708Z,0.50
2022-12-17T19:40:30.941Z,0.60
2022-12-17T19:43:16.183Z,0.60
2022-12-17T19:46:03.189Z,0.40
2022-12-17T19:48:49.687Z,0.60
2022-12-17T19:51:35.910Z,0.90
2022-12-17T19:54:21.619Z,0.60
2022-12-17T19:57:11.530Z,0.90
2022-12-17T19:59:57.657Z,0.90
2022-12-17T20:02:43.715Z,0.60
2022-12-17T20:05:29.434Z,0.80
2022-12-17T20:08:20.891Z,1.10
2022-12-17T20:11:28.854Z,1.40
2022-12-17T20:14:16.817Z,1.20
2022-12-17T20:17:02.691Z,0.90
2022-12-17T20:19:49.459Z,0.40
2022-12-17T20:22:35.001Z,0.40
2022-12-17T20:25:20.825Z,0.40
2022-12-17T20:28:06.260Z,0.50
2022-12-17T20:30:55.514Z,0.60
2022-12-17T20:33:44.021Z,0.50
2022-12-17T20:36:29.580Z,0.30
2022-12-17T20:39:15.588Z,0.00
2022-12-17T20:42:00.905Z,-0.10
2022-12-17T20:44:53.096Z,0.00
2022-12-17T20:47:40.524Z,0.00
2022-12-17T20:50:25.909Z,0.30
2022-12-17T20:53:11.788Z,0.40
2022-12-17T20:56:01.361Z,0.20
2022-12-17T20:58:46.807Z,0.40
2022-12-17T21:01:33.556Z,0.60
2022-12-17T21:04:20.593Z,0.60
2022-12-17T21:07:06.426Z,0.10
2022-12-17T21:09:51.692Z,-0.20
2022-12-17T21:12:56.370Z,0.20
2022-12-17T21:15:47.991Z,0.60
2022-12-17T21:18:34.497Z,0.00
2022-12-17T21:21:22.861Z,-0.10
2022-12-17T21:24:10.963Z,-0.10
2022-12-17T21:26:56.237Z,0.00
2022-12-17T21:29:42.073Z,0.30
2022-12-17T21:32:33.512Z,0.50
2022-12-17T21:35:19.144Z,0.60
2022-12-17T21:38:06.475Z,0.90
2022-12-17T21:40:56.313Z,1.10
2022-12-17T21:43:42.558Z,1.10
2022-12-17T21:46:29.092Z,1.20
2022-12-17T21:49:14.856Z,1.00
2022-12-17T21:52:00.843Z,0.70
2022-12-17T21:54:47.755Z,0.30
2022-12-17T21:57:33.752Z,-0.20
2022-12-17T22:00:19.558Z,-0.40
2022-12-17T22:03:05.491Z,-0.30
2022-12-17T22:05:51.000Z,-0.60
2022-12-17T22:08:37.432Z,-0.20
2022-12-17T22:11:26.101Z,-0.30
2022-12-17T22:14:18.946Z,-0.10
2022-12-17T22:17:06.393Z,0.10
2022-12-17T22:19:52.027Z,0.00
2022-12-17T22:22:37.653Z,0.30
2022-12-17T22:25:23.077Z,0.10
2022-12-17T22:28:10.593Z,0.20
2022-12-17T22:31:14.420Z,0.80
2022-12-17T22:35:17.123Z,1.10
2022-12-17T22:39:08.350Z,1.20
2022-12-17T22:44:30.964Z,1.10
2022-12-17T22:44:43.983Z,1.20
2022-12-17T22:46:36.129Z,1.70
2022-12-17T22:49:23.161Z,1.90
2022-12-17T22:52:08.690Z,1.30
2022-12-17T22:54:54.151Z,1.00
2022-12-17T22:57:40.542Z,1.10
2022-12-17T23:00:30.080Z,1.10
2022-12-17T23:03:16.709Z,0.80
2022-12-17T23:06:05.881Z,1.00
2022-12-17T23:08:51.606Z,0.70
2022-12-17T23:11:36.762Z,0.80
2022-12-17T23:14:22.340Z,1.00
2022-12-17T23:17:09.187Z,0.80
2022-12-17T23:19:54.683Z,0.70
2022-12-17T23:22:40.456Z,0.60
2022-12-17T23:25:26.332Z,0.80
2022-12-17T23:28:11.642Z,0.90
2022-12-17T23:30:56.961Z,0.90
2022-12-17T23:33:44.638Z,1.20
2022-12-17T23:36:30.254Z,1.00
2022-12-17T23:39:15.587Z,1.20
2022-12-17T23:42:01.420Z,1.20
2022-12-17T23:44:46.943Z,1.20
2022-12-17T23:47:32.636Z,0.90
2022-12-17T23:50:19.958Z,1.00
2022-12-17T23:53:05.207Z,0.90
2022-12-17T23:55:51.000Z,0.80
2022-12-17T23:58:37.045Z,0.90
